createdAt,value
2023-02-19T00:00:23.446Z,0.80
2023-02-19T00:02:53.566Z,0.90
2023-02-19T00:05:22.925Z,0.95
2023-02-19T00:07:51.866Z,0.80
2023-02-19T00:10:20.774Z,0.77
2023-02-19T00:12:49.744Z,0.80
2023-02-19T00:15:18.752Z,0.60
2023-02-19T00:17:47.645Z,0.80
2023-02-19T00:20:16.600Z,0.55
2023-02-19T00:22:45.726Z,0.80
2023-02-19T00:25:16.850Z,0.63
2023-02-19T00:27:46.050Z,0.80
2023-02-19T00:30:15.158Z,1.02
2023-02-19T00:32:44.163Z,0.90
2023-02-19T00:35:16.363Z,1.00
2023-02-19T00:37:45.332Z,0.90
2023-02-19T00:40:14.349Z,0.80
2023-02-19T00:42:43.344Z,0.82
2023-02-19T00:45:12.367Z,0.90
2023-02-19T00:47:41.684Z,0.75
2023-02-19T00:50:10.778Z,0.70
2023-02-19T00:52:39.796Z,0.60
2023-02-19T00:55:08.852Z,0.70
2023-02-19T00:57:37.897Z,0.70
2023-02-19T01:00:07.539Z,0.80
2023-02-19T01:02:36.477Z,0.70
2023-02-19T01:05:07.201Z,0.63
2023-02-19T01:07:38.216Z,0.60
2023-02-19T01:10:07.738Z,0.70
2023-02-19T01:12:36.925Z,0.75
2023-02-19T01:15:06.177Z,0.70
2023-02-19T01:17:37.539Z,0.88
2023-02-19T01:20:06.980Z,0.95
2023-02-19T01:22:36.122Z,1.10
2023-02-19T01:25:05.800Z,0.90
2023-02-19T01:27:34.784Z,0.90
2023-02-19T01:30:03.713Z,0.73
2023-02-19T01:32:32.716Z,0.73
2023-02-19T01:35:01.574Z,0.77
2023-02-19T01:37:30.721Z,0.60
2023-02-19T01:39:59.656Z,0.70
2023-02-19T01:42:28.629Z,0.88
2023-02-19T01:45:24.244Z,0.73
2023-02-19T01:48:07.441Z,0.60
2023-02-19T01:50:45.113Z,0.80
2023-02-19T01:53:17.936Z,0.82
2023-02-19T01:55:49.659Z,0.80
2023-02-19T01:58:18.829Z,0.70
2023-02-19T02:00:48.678Z,0.70
2023-02-19T02:03:18.622Z,0.82
2023-02-19T02:05:59.278Z,0.77
2023-02-19T02:08:48.123Z,0.70
2023-02-19T02:11:17.640Z,0.90
2023-02-19T02:13:47.523Z,0.70
2023-02-19T02:16:33.924Z,0.68
2023-02-19T02:19:46.460Z,0.70
2023-02-19T02:22:55.135Z,0.73
2023-02-19T02:25:57.057Z,0.70
2023-02-19T02:28:54.316Z,0.75
2023-02-19T02:31:23.921Z,1.00
2023-02-19T02:34:05.846Z,0.85
2023-02-19T02:36:38.226Z,0.98
2023-02-19T02:39:12.396Z,0.75
2023-02-19T02:41:46.819Z,1.02
2023-02-19T02:44:15.836Z,0.70
2023-02-19T02:46:49.261Z,0.88
2023-02-19T02:49:23.257Z,1.23
2023-02-19T02:51:55.112Z,1.00
2023-02-19T02:54:53.476Z,1.10
2023-02-19T02:57:24.188Z,1.10
2023-02-19T02:59:58.188Z,1.10
2023-02-19T03:02:32.716Z,1.10
2023-02-19T03:05:29.427Z,1.55
2023-02-19T03:08:25.801Z,2.63
2023-02-19T03:11:28.959Z,3.78
2023-02-19T03:14:36.201Z,1.65
2023-02-19T03:17:55.918Z,1.40
2023-02-19T03:20:26.236Z,1.20
2023-02-19T03:22:58.160Z,1.60
2023-02-19T03:25:53.687Z,1.60
2023-02-19T03:28:54.585Z,2.28
2023-02-19T03:31:28.162Z,1.98
2023-02-19T03:34:11.284Z,1.90
2023-02-19T03:36:59.260Z,1.80
2023-02-19T03:39:28.808Z,1.50
2023-02-19T03:42:08.752Z,1.50
2023-02-19T03:44:59.531Z,1.83
2023-02-19T03:47:49.079Z,1.50
2023-02-19T03:50:56.542Z,1.50
2023-02-19T03:53:36.005Z,1.77
2023-02-19T03:56:28.629Z,1.10
2023-02-19T03:59:04.674Z,1.48
2023-02-19T04:01:36.913Z,3.08
2023-02-19T04:04:29.631Z,5.40
2023-02-19T04:07:00.014Z,4.00
2023-02-19T04:09:42.638Z,11.00
2023-02-19T04:12:17.413Z,34.53
2023-02-19T04:15:01.654Z,26.60
2023-02-19T04:17:46.394Z,22.75
2023-02-19T04:20:18.213Z,24.98
2023-02-19T04:22:47.891Z,16.35
2023-02-19T04:25:16.973Z,19.83
2023-02-19T04:27:46.877Z,36.70
2023-02-19T04:30:16.377Z,26.90
2023-02-19T04:32:45.459Z,21.02
2023-02-19T04:35:14.383Z,19.85
2023-02-19T04:37:43.333Z,35.63
2023-02-19T04:40:12.436Z,31.35
2023-02-19T04:42:41.555Z,24.67
2023-02-19T04:45:10.534Z,21.88
2023-02-19T04:47:39.432Z,20.85
2023-02-19T04:50:08.811Z,17.05
2023-02-19T04:52:38.111Z,15.90
2023-02-19T04:55:07.655Z,13.32
2023-02-19T04:57:36.993Z,11.30
2023-02-19T05:00:06.501Z,7.53
2023-02-19T05:02:35.435Z,10.18
2023-02-19T05:05:05.008Z,28.15
2023-02-19T05:07:34.572Z,13.85
2023-02-19T05:10:03.541Z,8.65
2023-02-19T05:12:32.693Z,15.68
2023-02-19T05:15:01.610Z,18.52
2023-02-19T05:17:30.657Z,16.13
2023-02-19T05:19:59.834Z,11.65
2023-02-19T05:22:30.906Z,8.98
2023-02-19T05:24:59.915Z,8.40
2023-02-19T05:27:29.230Z,10.70
2023-02-19T05:29:58.204Z,14.05
2023-02-19T05:32:27.204Z,14.23
2023-02-19T05:34:56.032Z,9.35
2023-02-19T05:37:25.006Z,7.82
2023-02-19T05:39:53.942Z,5.28
2023-02-19T05:42:22.880Z,4.50
2023-02-19T05:44:51.772Z,3.70
2023-02-19T05:47:20.762Z,2.50
2023-02-19T05:49:49.631Z,2.65
2023-02-19T05:52:18.574Z,3.15
2023-02-19T05:54:47.540Z,2.10
2023-02-19T05:57:16.528Z,3.03
2023-02-19T05:59:45.775Z,4.45
2023-02-19T06:02:14.868Z,3.53
2023-02-19T06:04:43.755Z,2.80
2023-02-19T06:07:12.935Z,3.13
2023-02-19T06:09:44.755Z,3.40
2023-02-19T06:12:13.701Z,4.00
2023-02-19T06:14:42.620Z,5.50
2023-02-19T06:17:11.780Z,4.60
2023-02-19T06:19:40.690Z,5.80
2023-02-19T06:22:10.040Z,6.88
2023-02-19T06:24:39.576Z,5.60
2023-02-19T06:27:11.446Z,5.78
2023-02-19T06:29:40.471Z,5.85
2023-02-19T06:32:09.596Z,5.68
2023-02-19T06:34:38.779Z,4.22
2023-02-19T06:37:07.660Z,4.03
2023-02-19T06:39:36.654Z,2.65
2023-02-19T06:42:05.757Z,2.47
2023-02-19T06:44:34.764Z,4.25
2023-02-19T06:47:03.629Z,12.95
2023-02-19T06:49:33.235Z,12.25
2023-02-19T06:52:02.854Z,12.75
2023-02-19T06:54:32.326Z,21.95
2023-02-19T06:57:01.860Z,29.85
2023-02-19T06:59:30.740Z,22.05
2023-02-19T07:01:59.963Z,18.08
2023-02-19T07:04:29.657Z,13.18
2023-02-19T07:06:58.630Z,10.68
2023-02-19T07:09:31.419Z,18.08
2023-02-19T07:12:00.419Z,18.25
2023-02-19T07:14:30.802Z,7.30
2023-02-19T07:16:59.863Z,4.13
2023-02-19T07:19:31.527Z,3.13
2023-02-19T07:22:00.477Z,12.98
2023-02-19T07:24:29.306Z,16.73
2023-02-19T07:26:59.042Z,9.20
2023-02-19T07:29:27.950Z,5.40
2023-02-19T07:31:56.864Z,3.50
2023-02-19T07:34:25.915Z,2.60
2023-02-19T07:36:54.768Z,1.75
2023-02-19T07:39:23.718Z,1.70
2023-02-19T07:41:52.651Z,1.75
2023-02-19T07:44:28.341Z,1.63
2023-02-19T07:46:57.585Z,1.55
2023-02-19T07:49:27.053Z,1.60
2023-02-19T07:51:59.120Z,2.10
2023-02-19T07:54:28.103Z,1.85
2023-02-19T07:56:57.181Z,1.80
2023-02-19T07:59:26.286Z,1.75
2023-02-19T08:02:13.532Z,2.30
2023-02-19T08:07:11.195Z,1.98
2023-02-19T08:09:40.137Z,1.80
2023-02-19T08:12:31.064Z,1.80
2023-02-19T08:15:00.008Z,1.70
2023-02-19T08:17:31.040Z,2.00
2023-02-19T08:19:59.955Z,2.10
2023-02-19T08:22:28.807Z,2.00
2023-02-19T08:24:57.740Z,2.03
2023-02-19T08:27:26.943Z,2.15
2023-02-19T08:29:55.863Z,1.70
2023-02-19T08:32:24.793Z,1.85
2023-02-19T08:34:53.934Z,1.75
2023-02-19T08:37:22.770Z,2.22
2023-02-19T08:39:51.690Z,1.73
2023-02-19T08:42:20.516Z,1.90
2023-02-19T08:44:49.450Z,1.55
2023-02-19T08:47:18.582Z,1.98
2023-02-19T08:49:47.650Z,1.90
2023-02-19T08:52:16.536Z,2.35
2023-02-19T08:54:45.535Z,2.22
2023-02-19T08:57:14.809Z,2.17
2023-02-19T08:59:43.826Z,2.05
2023-02-19T09:02:13.567Z,2.40
2023-02-19T09:04:42.635Z,2.30
2023-02-19T09:07:13.468Z,2.20
2023-02-19T09:09:42.443Z,2.30
2023-02-19T09:12:13.364Z,2.17
2023-02-19T09:14:42.930Z,2.78
2023-02-19T09:17:12.002Z,2.40
2023-02-19T09:19:40.895Z,2.00
2023-02-19T09:22:10.001Z,2.13
2023-02-19T09:24:38.959Z,1.98
2023-02-19T09:27:07.951Z,2.60
2023-02-19T09:29:37.137Z,2.53
2023-02-19T09:32:06.688Z,2.50
2023-02-19T09:34:36.003Z,2.45
2023-02-19T09:37:08.716Z,2.05
2023-02-19T09:39:37.928Z,2.00
2023-02-19T09:42:21.989Z,3.70
2023-02-19T09:44:53.236Z,9.47
2023-02-19T09:47:25.143Z,8.63
2023-02-19T09:50:06.306Z,6.03
2023-02-19T09:52:39.863Z,4.60
2023-02-19T09:55:23.246Z,3.28
2023-02-19T09:57:54.001Z,3.55
2023-02-19T10:00:23.053Z,3.17
2023-02-19T10:03:15.001Z,4.20
2023-02-19T10:05:44.961Z,5.30
2023-02-19T10:08:19.641Z,5.57
2023-02-19T10:10:49.234Z,5.78
2023-02-19T10:13:25.053Z,5.72
2023-02-19T10:16:04.951Z,4.80
2023-02-19T10:18:46.281Z,4.10
2023-02-19T10:21:24.880Z,3.83
2023-02-19T10:24:01.491Z,3.67
2023-02-19T10:26:35.510Z,3.67
2023-02-19T10:29:06.071Z,3.47
2023-02-19T10:31:35.527Z,3.75
2023-02-19T10:34:05.319Z,4.53
2023-02-19T10:36:46.123Z,3.58
2023-02-19T10:39:23.548Z,4.68
2023-02-19T10:41:55.381Z,3.60
2023-02-19T10:44:30.000Z,2.88
2023-02-19T10:47:01.905Z,2.17
2023-02-19T10:49:41.431Z,2.10
2023-02-19T10:55:14.380Z,2.10
2023-02-19T10:57:43.432Z,1.95
2023-02-19T11:00:23.652Z,2.00
2023-02-19T11:03:23.014Z,2.30
2023-02-19T11:06:05.504Z,1.80
2023-02-19T11:08:55.652Z,2.17
2023-02-19T11:11:39.439Z,2.50
2023-02-19T11:14:19.174Z,2.70
2023-02-19T11:16:53.749Z,2.30
2023-02-19T11:19:39.127Z,2.10
2023-02-19T11:22:22.387Z,2.50
2023-02-19T11:24:56.690Z,1.90
2023-02-19T11:27:27.056Z,2.60
2023-02-19T11:30:36.041Z,2.50
2023-02-19T11:33:18.136Z,2.63
2023-02-19T11:36:19.498Z,2.65
2023-02-19T11:38:48.525Z,3.22
2023-02-19T11:41:46.018Z,2.40
2023-02-19T11:44:31.140Z,2.42
2023-02-19T11:47:18.484Z,2.28
2023-02-19T11:49:51.877Z,2.83
2023-02-19T11:52:35.746Z,2.50
2023-02-19T11:55:42.973Z,2.42
2023-02-19T11:58:29.518Z,2.80
2023-02-19T12:01:22.228Z,2.70
2023-02-19T12:04:06.294Z,2.53
2023-02-19T12:06:56.608Z,2.53
2023-02-19T12:10:10.460Z,3.20
2023-02-19T12:12:48.034Z,3.05
2023-02-19T12:15:16.945Z,3.20
2023-02-19T12:18:00.815Z,3.10
2023-02-19T12:20:54.297Z,2.70
2023-02-19T12:23:53.654Z,2.95
2023-02-19T12:26:28.979Z,3.10
2023-02-19T12:29:42.316Z,2.80
2023-02-19T12:32:32.018Z,3.03
2023-02-19T12:35:29.167Z,2.95
2023-02-19T12:38:18.040Z,3.08
2023-02-19T12:41:20.738Z,2.58
2023-02-19T12:44:17.151Z,3.10
2023-02-19T12:46:53.951Z,3.05
2023-02-19T12:49:35.972Z,2.97
2023-02-19T12:52:18.070Z,3.00
2023-02-19T12:54:51.034Z,3.10
2023-02-19T12:57:25.109Z,3.20
2023-02-19T12:59:57.196Z,3.13
2023-02-19T13:02:39.184Z,3.60
2023-02-19T13:05:32.935Z,3.35
2023-02-19T13:08:04.782Z,3.38
2023-02-19T13:11:24.743Z,2.88
2023-02-19T13:14:23.618Z,3.20
2023-02-19T13:16:59.142Z,3.17
2023-02-19T13:19:28.096Z,3.60
2023-02-19T13:22:38.008Z,3.00
2023-02-19T13:25:09.554Z,3.42
2023-02-19T13:28:13.610Z,3.70
2023-02-19T13:31:00.111Z,3.67
2023-02-19T13:34:00.477Z,3.65
2023-02-19T13:36:34.727Z,3.28
2023-02-19T13:39:07.648Z,3.60
2023-02-19T13:41:41.534Z,3.40
2023-02-19T13:44:27.055Z,3.40
2023-02-19T13:46:56.277Z,3.28
2023-02-19T13:49:25.233Z,2.85
2023-02-19T13:52:00.888Z,2.90
2023-02-19T13:54:36.803Z,2.42
2023-02-19T13:57:24.248Z,2.33
2023-02-19T14:02:22.704Z,2.22
2023-02-19T14:05:37.866Z,2.10
2023-02-19T14:08:10.633Z,2.35
2023-02-19T14:11:03.186Z,2.10
2023-02-19T14:13:51.467Z,1.98
2023-02-19T14:16:30.959Z,1.90
2023-02-19T14:19:00.011Z,1.83
2023-02-19T14:21:41.137Z,1.83
2023-02-19T14:24:15.784Z,1.80
2023-02-19T14:26:48.618Z,1.80
2023-02-19T14:29:18.498Z,2.00
2023-02-19T14:31:51.144Z,2.05
2023-02-19T14:34:24.615Z,2.25
2023-02-19T14:37:01.033Z,2.10
2023-02-19T14:39:38.653Z,1.92
2023-02-19T14:42:15.154Z,2.45
2023-02-19T14:45:03.673Z,2.22
2023-02-19T14:47:35.803Z,2.60
2023-02-19T14:50:15.237Z,2.47
2023-02-19T14:52:49.538Z,2.00
2023-02-19T14:55:37.444Z,2.10
2023-02-19T14:58:14.088Z,2.33
2023-02-19T15:00:44.143Z,2.70
2023-02-19T15:03:50.033Z,1.70
2023-02-19T15:06:21.255Z,2.60
2023-02-19T15:08:58.364Z,3.03
2023-02-19T15:11:29.681Z,2.67
2023-02-19T15:14:09.754Z,2.63
2023-02-19T15:16:38.863Z,2.78
2023-02-19T15:19:10.507Z,2.88
2023-02-19T15:21:50.590Z,2.80
2023-02-19T15:24:20.577Z,3.17
2023-02-19T15:26:52.969Z,4.30
2023-02-19T15:29:24.885Z,2.40
2023-02-19T15:32:02.244Z,2.35
2023-02-19T15:34:33.819Z,3.58
2023-02-19T15:37:07.540Z,2.72
2023-02-19T15:39:40.771Z,2.75
2023-02-19T15:42:17.392Z,3.67
2023-02-19T15:44:52.926Z,2.97
2023-02-19T15:47:50.732Z,2.22
2023-02-19T15:50:34.575Z,2.65
2023-02-19T15:53:07.708Z,2.35
2023-02-19T15:56:05.097Z,2.58
2023-02-19T15:58:36.876Z,2.65
2023-02-19T16:01:23.486Z,2.78
2023-02-19T16:03:56.664Z,2.78
2023-02-19T16:06:29.390Z,2.08
2023-02-19T16:09:19.926Z,3.13
2023-02-19T16:11:55.652Z,2.83
2023-02-19T16:14:32.537Z,2.50
2023-02-19T16:17:02.281Z,2.45
2023-02-19T16:19:37.842Z,2.50
2023-02-19T16:22:12.351Z,2.85
2023-02-19T16:24:48.334Z,3.35
2023-02-19T16:27:37.959Z,2.70
2023-02-19T16:30:26.432Z,2.53
2023-02-19T16:33:40.205Z,2.45
2023-02-19T16:36:30.997Z,3.40
2023-02-19T16:39:13.089Z,2.72
2023-02-19T16:41:42.027Z,2.63
2023-02-19T16:44:25.932Z,8.02
2023-02-19T16:47:17.853Z,3.90
2023-02-19T16:49:46.839Z,3.70
2023-02-19T16:52:17.914Z,4.50
2023-02-19T16:54:49.411Z,6.78
2023-02-19T16:57:18.473Z,9.90
2023-02-19T16:59:50.399Z,5.18
2023-02-19T17:02:25.340Z,6.82
2023-02-19T17:04:57.484Z,8.45
2023-02-19T17:07:31.203Z,7.80
2023-02-19T17:10:00.458Z,7.57
2023-02-19T17:12:32.503Z,5.25
2023-02-19T17:15:04.585Z,4.72
2023-02-19T17:17:33.733Z,4.03
2023-02-19T17:20:02.903Z,5.57
2023-02-19T17:22:35.213Z,4.15
2023-02-19T17:25:06.861Z,3.30
2023-02-19T17:27:38.804Z,3.95
2023-02-19T17:30:16.859Z,2.70
2023-02-19T17:32:45.894Z,3.47
2023-02-19T17:35:16.566Z,3.05
2023-02-19T17:37:52.967Z,3.17
2023-02-19T17:40:34.357Z,3.83
2023-02-19T17:43:07.809Z,3.80
2023-02-19T17:45:37.148Z,4.03
2023-02-19T17:48:07.712Z,4.40
2023-02-19T17:50:40.707Z,3.90
2023-02-19T17:53:16.581Z,4.10
2023-02-19T17:55:47.441Z,3.72
2023-02-19T17:58:17.317Z,4.90
2023-02-19T18:00:55.488Z,4.88
2023-02-19T18:03:42.527Z,4.00
2023-02-19T18:08:52.345Z,5.40
2023-02-19T18:11:26.698Z,5.03
2023-02-19T18:13:58.445Z,6.22
2023-02-19T18:16:41.012Z,5.20
2023-02-19T18:19:13.997Z,4.60
2023-02-19T18:21:43.266Z,6.45
2023-02-19T18:24:15.318Z,5.45
2023-02-19T18:26:45.047Z,4.78
2023-02-19T18:29:15.495Z,6.40
2023-02-19T18:31:47.795Z,6.07
2023-02-19T18:34:20.878Z,6.25
2023-02-19T18:36:50.919Z,5.10
2023-02-19T18:39:20.214Z,5.25
2023-02-19T18:41:53.347Z,5.85
2023-02-19T18:44:24.297Z,6.15
2023-02-19T18:46:54.743Z,6.28
2023-02-19T18:49:27.963Z,6.20
2023-02-19T18:51:57.842Z,6.80
2023-02-19T18:54:29.415Z,6.20
2023-02-19T18:57:01.666Z,6.05
2023-02-19T18:59:30.896Z,5.88
2023-02-19T19:02:02.097Z,7.03
2023-02-19T19:04:31.203Z,6.72
2023-02-19T19:07:01.397Z,6.60
2023-02-19T19:09:30.604Z,6.30
2023-02-19T19:12:01.629Z,6.28
2023-02-19T19:14:30.697Z,5.75
2023-02-19T19:17:00.630Z,7.30
2023-02-19T19:19:29.716Z,6.70
2023-02-19T19:21:58.719Z,6.40
2023-02-19T19:24:27.939Z,6.25
2023-02-19T19:26:59.563Z,6.00
2023-02-19T19:29:28.753Z,7.63
2023-02-19T19:31:57.832Z,6.72
2023-02-19T19:34:29.476Z,6.40
2023-02-19T19:36:58.513Z,8.55
2023-02-19T19:39:28.194Z,8.05
2023-02-19T19:41:58.681Z,7.35
2023-02-19T19:44:30.419Z,6.95
2023-02-19T19:47:00.098Z,5.57
2023-02-19T19:49:29.208Z,7.88
2023-02-19T19:52:02.102Z,8.02
2023-02-19T19:54:31.364Z,6.35
2023-02-19T19:57:00.209Z,6.55
2023-02-19T19:59:29.240Z,6.72
2023-02-19T20:02:04.888Z,5.50
2023-02-19T20:04:43.128Z,4.97
2023-02-19T20:07:15.186Z,7.28
2023-02-19T20:09:49.219Z,6.00
2023-02-19T20:12:24.333Z,6.15
2023-02-19T20:14:57.138Z,6.63
2023-02-19T20:17:30.545Z,6.60
2023-02-19T20:19:59.566Z,4.93
2023-02-19T20:22:28.444Z,6.03
2023-02-19T20:24:57.496Z,8.15
2023-02-19T20:27:26.827Z,5.68
2023-02-19T20:29:58.560Z,6.13
2023-02-19T20:32:36.736Z,6.28
2023-02-19T20:35:06.204Z,7.05
2023-02-19T20:37:35.363Z,6.95
2023-02-19T20:40:05.119Z,6.82
2023-02-19T20:42:37.140Z,7.20
2023-02-19T20:45:12.442Z,7.18
2023-02-19T20:47:44.447Z,6.30
2023-02-19T20:50:13.731Z,8.57
2023-02-19T20:52:43.519Z,7.90
2023-02-19T20:55:14.908Z,5.53
2023-02-19T20:57:43.900Z,5.03
2023-02-19T21:00:14.633Z,5.85
2023-02-19T21:02:43.788Z,5.85
2023-02-19T21:05:12.754Z,5.78
2023-02-19T21:07:41.660Z,5.80
2023-02-19T21:10:14.557Z,4.63
2023-02-19T21:12:43.446Z,5.97
2023-02-19T21:15:12.518Z,5.88
2023-02-19T21:17:41.579Z,6.00
2023-02-19T21:20:13.592Z,5.97
2023-02-19T21:22:42.523Z,5.03
2023-02-19T21:25:11.731Z,6.20
2023-02-19T21:27:41.109Z,5.05
2023-02-19T21:30:10.468Z,4.70
2023-02-19T21:32:39.362Z,5.57
2023-02-19T21:35:09.479Z,5.25
2023-02-19T21:37:42.267Z,5.50
2023-02-19T21:40:13.394Z,4.53
2023-02-19T21:42:43.049Z,5.35
2023-02-19T21:45:12.165Z,4.45
2023-02-19T21:47:41.168Z,4.68
2023-02-19T21:50:10.476Z,5.07
2023-02-19T21:52:39.395Z,4.60
2023-02-19T21:55:10.929Z,4.60
2023-02-19T21:57:41.520Z,4.53
2023-02-19T22:00:11.024Z,6.07
2023-02-19T22:02:39.998Z,4.20
2023-02-19T22:05:11.744Z,5.18
2023-02-19T22:07:40.960Z,5.85
2023-02-19T22:10:11.007Z,4.32
2023-02-19T22:12:42.778Z,4.60
2023-02-19T22:15:12.970Z,4.72
2023-02-19T22:17:44.725Z,4.80
2023-02-19T22:20:17.948Z,3.67
2023-02-19T22:22:47.102Z,3.45
2023-02-19T22:25:19.137Z,3.20
2023-02-19T22:27:56.257Z,4.22
2023-02-19T22:31:34.304Z,3.53
2023-02-19T22:34:03.725Z,3.97
2023-02-19T22:36:35.101Z,3.03
2023-02-19T22:39:06.129Z,3.47
2023-02-19T22:41:35.973Z,3.08
2023-02-19T22:44:05.576Z,3.53
2023-02-19T22:46:34.502Z,2.47
2023-02-19T22:49:05.953Z,2.90
2023-02-19T22:51:38.074Z,2.75
2023-02-19T22:54:13.566Z,2.50
2023-02-19T22:56:43.124Z,2.63
2023-02-19T22:59:12.447Z,2.03
2023-02-19T23:01:41.326Z,2.78
2023-02-19T23:04:10.355Z,2.30
2023-02-19T23:06:42.205Z,19.02
2023-02-19T23:09:23.431Z,5.45
2023-02-19T23:11:53.922Z,2.47
2023-02-19T23:14:26.265Z,2.60
2023-02-19T23:16:55.483Z,2.30
2023-02-19T23:19:28.080Z,2.17
2023-02-19T23:21:57.224Z,2.15
2023-02-19T23:24:28.290Z,2.25
2023-02-19T23:27:00.674Z,2.70
2023-02-19T23:29:32.321Z,2.15
2023-02-19T23:32:01.650Z,1.75
2023-02-19T23:34:30.616Z,2.75
2023-02-19T23:37:04.726Z,2.45
2023-02-19T23:39:33.870Z,3.40
2023-02-19T23:42:02.901Z,2.60
2023-02-19T23:44:32.348Z,2.33
2023-02-19T23:47:01.311Z,2.58
2023-02-19T23:49:30.305Z,2.55
2023-02-19T23:52:05.438Z,2.83
2023-02-19T23:54:44.948Z,2.45
2023-02-19T23:57:16.261Z,2.45
2023-02-19T23:59:45.655Z,3.58
